createdAt,value
2022-12-01T00:01:08.117Z,4.04
2022-12-01T00:03:35.220Z,4.19
2022-12-01T00:06:13.476Z,4.11
2022-12-01T00:08:39.963Z,4.08
2022-12-01T00:11:09.129Z,4.17
2022-12-01T00:13:36.302Z,4.17
2022-12-01T00:16:10.755Z,4.08
2022-12-01T00:18:37.426Z,4.04
2022-12-01T00:21:03.981Z,4.15
2022-12-01T00:23:30.508Z,3.84
2022-12-01T00:26:03.134Z,4.08
2022-12-01T00:28:29.642Z,4.07
2022-12-01T00:30:56.146Z,4.06
2022-12-01T00:33:22.686Z,3.97
2022-12-01T00:35:49.185Z,4.05
2022-12-01T00:38:15.707Z,4.04
2022-12-01T00:40:42.687Z,3.97
2022-12-01T00:43:09.159Z,3.99
2022-12-01T00:45:35.701Z,4.10
2022-12-01T00:48:02.368Z,4.09
2022-12-01T00:50:28.908Z,4.08
2022-12-01T00:52:55.460Z,4.07
2022-12-01T00:55:22.001Z,4.00
2022-12-01T00:57:48.503Z,4.02
2022-12-01T01:00:17.317Z,3.96
2022-12-01T01:02:44.049Z,3.98
2022-12-01T01:05:10.604Z,3.97
2022-12-01T01:07:37.416Z,4.02
2022-12-01T01:10:04.347Z,4.01
2022-12-01T01:12:31.096Z,3.84
2022-12-01T01:14:57.624Z,3.83
2022-12-01T01:17:24.148Z,3.79
2022-12-01T01:19:52.969Z,3.98
2022-12-01T01:22:19.879Z,3.96
2022-12-01T01:24:46.468Z,3.80
2022-12-01T01:27:12.979Z,3.93
2022-12-01T01:29:39.579Z,3.95
2022-12-01T01:32:06.235Z,3.90
2022-12-01T01:34:32.725Z,3.89
2022-12-01T01:36:59.266Z,3.92
2022-12-01T01:39:25.822Z,3.86
2022-12-01T01:41:52.321Z,3.86
2022-12-01T01:45:03.883Z,3.87
2022-12-01T01:47:39.704Z,3.80
2022-12-01T01:50:12.654Z,3.81
2022-12-01T01:52:45.042Z,3.80
2022-12-01T01:55:12.792Z,3.71
2022-12-01T01:57:40.698Z,3.86
2022-12-01T02:00:10.312Z,3.81
2022-12-01T02:02:45.084Z,3.78
2022-12-01T02:05:34.470Z,3.78
2022-12-01T02:08:03.014Z,3.78
2022-12-01T02:11:14.610Z,3.69
2022-12-01T02:14:09.943Z,3.65
2022-12-01T02:16:58.188Z,3.59
2022-12-01T02:19:51.207Z,3.55
2022-12-01T02:22:39.946Z,3.49
2022-12-01T02:25:21.351Z,3.44
2022-12-01T02:28:13.196Z,3.40
2022-12-01T02:30:45.684Z,3.28
2022-12-01T02:33:29.862Z,3.13
2022-12-01T02:36:19.346Z,3.32
2022-12-01T02:38:54.374Z,3.30
2022-12-01T02:41:31.520Z,3.19
2022-12-01T02:44:03.904Z,3.27
2022-12-01T02:46:44.409Z,3.09
2022-12-01T02:49:19.046Z,3.22
2022-12-01T02:51:46.191Z,3.18
2022-12-01T02:54:14.849Z,3.07
2022-12-01T02:56:44.948Z,3.13
2022-12-01T02:59:13.319Z,3.13
2022-12-01T03:01:46.249Z,3.08
2022-12-01T03:04:38.032Z,3.03
2022-12-01T03:07:30.233Z,2.89
2022-12-01T03:10:27.756Z,3.00
2022-12-01T03:13:13.121Z,2.97
2022-12-01T03:15:59.925Z,2.91
2022-12-01T03:18:44.818Z,2.83
2022-12-01T03:21:42.370Z,2.86
2022-12-01T03:24:15.767Z,2.74
2022-12-01T03:26:46.129Z,2.72
2022-12-01T03:29:24.934Z,2.79
2022-12-01T03:31:56.994Z,2.65
2022-12-01T03:34:39.469Z,2.80
2022-12-01T03:37:37.917Z,2.80
2022-12-01T03:40:09.337Z,2.78
2022-12-01T03:42:42.035Z,2.70
2022-12-01T03:45:15.216Z,2.76
2022-12-01T03:47:41.896Z,2.77
2022-12-01T03:50:13.895Z,2.80
2022-12-01T03:52:46.722Z,2.85
2022-12-01T03:55:26.082Z,2.94
2022-12-01T03:58:07.552Z,2.92
2022-12-01T04:00:34.548Z,2.89
2022-12-01T04:03:04.381Z,3.01
2022-12-01T04:05:33.151Z,3.01
2022-12-01T04:08:00.308Z,2.98
2022-12-01T04:10:27.079Z,3.12
2022-12-01T04:12:59.262Z,3.02
2022-12-01T04:15:27.171Z,3.21
2022-12-01T04:17:54.304Z,3.25
2022-12-01T04:20:21.670Z,3.21
2022-12-01T04:22:48.839Z,3.32
2022-12-01T04:25:15.510Z,3.35
2022-12-01T04:27:42.135Z,3.43
2022-12-01T04:30:09.350Z,3.39
2022-12-01T04:32:41.016Z,3.46
2022-12-01T04:35:09.579Z,3.52
2022-12-01T04:37:36.589Z,3.56
2022-12-01T04:40:04.027Z,3.58
2022-12-01T04:42:30.718Z,3.63
2022-12-01T04:44:57.551Z,3.60
2022-12-01T04:47:24.135Z,3.74
2022-12-01T04:49:50.956Z,3.64
2022-12-01T04:52:17.818Z,3.77
2022-12-01T04:54:44.351Z,3.70
2022-12-01T04:57:10.989Z,3.90
2022-12-01T04:59:37.586Z,3.91
2022-12-01T05:02:04.308Z,3.92
2022-12-01T05:04:32.551Z,3.75
2022-12-01T05:06:59.110Z,3.97
2022-12-01T05:09:25.607Z,4.09
2022-12-01T05:11:52.143Z,3.89
2022-12-01T05:14:18.642Z,4.13
2022-12-01T05:16:45.291Z,4.12
2022-12-01T05:19:30.375Z,4.11
2022-12-01T05:21:57.088Z,4.24
2022-12-01T05:24:23.617Z,4.12
2022-12-01T05:26:50.192Z,4.25
2022-12-01T05:29:17.103Z,4.21
2022-12-01T05:31:45.576Z,4.30
2022-12-01T05:34:12.109Z,4.32
2022-12-01T05:36:38.623Z,4.22
2022-12-01T05:39:05.366Z,4.27
2022-12-01T05:41:32.136Z,4.27
2022-12-01T05:43:58.797Z,4.34
2022-12-01T05:46:25.509Z,4.33
2022-12-01T05:48:52.079Z,4.32
2022-12-01T05:51:18.607Z,4.37
2022-12-01T05:53:45.594Z,4.37
2022-12-01T05:56:12.293Z,4.36
2022-12-01T05:58:39.248Z,4.30
2022-12-01T06:01:06.784Z,4.43
2022-12-01T06:03:33.292Z,4.29
2022-12-01T06:05:59.953Z,4.37
2022-12-01T06:08:26.715Z,4.35
2022-12-01T06:10:53.328Z,4.39
2022-12-01T06:13:20.230Z,4.38
2022-12-01T06:15:56.178Z,4.38
2022-12-01T06:18:23.187Z,4.35
2022-12-01T06:20:49.726Z,4.27
2022-12-01T06:23:16.363Z,4.23
2022-12-01T06:25:43.722Z,4.31
2022-12-01T06:28:10.218Z,4.24
2022-12-01T06:30:36.847Z,4.31
2022-12-01T06:33:03.451Z,4.31
2022-12-01T06:35:30.005Z,4.19
2022-12-01T06:37:56.702Z,4.25
2022-12-01T06:40:23.419Z,4.35
2022-12-01T06:42:50.025Z,4.13
2022-12-01T06:45:16.670Z,4.38
2022-12-01T06:47:43.370Z,4.25
2022-12-01T06:50:12.368Z,4.36
2022-12-01T06:52:39.136Z,4.41
2022-12-01T06:55:06.290Z,4.38
2022-12-01T06:57:33.196Z,4.39
2022-12-01T07:00:00.003Z,4.32
2022-12-01T07:02:26.827Z,4.38
2022-12-01T07:04:53.450Z,4.37
2022-12-01T07:07:19.998Z,4.15
2022-12-01T07:09:46.832Z,4.24
2022-12-01T07:12:13.515Z,4.26
2022-12-01T07:14:42.420Z,4.36
2022-12-01T07:17:10.271Z,4.20
2022-12-01T07:19:36.956Z,4.37
2022-12-01T07:22:03.571Z,4.31
2022-12-01T07:24:30.926Z,4.30
2022-12-01T07:26:57.716Z,4.25
2022-12-01T07:29:24.411Z,3.93
2022-12-01T07:31:50.910Z,4.15
2022-12-01T07:34:17.462Z,4.14
2022-12-01T07:36:44.152Z,3.99
2022-12-01T07:39:10.653Z,4.08
2022-12-01T07:41:37.334Z,4.08
2022-12-01T07:44:04.373Z,4.07
2022-12-01T07:46:31.068Z,3.98
2022-12-01T07:48:58.091Z,3.98
2022-12-01T07:51:25.815Z,3.70
2022-12-01T07:53:53.736Z,3.96
2022-12-01T07:56:21.541Z,3.96
2022-12-01T07:58:48.734Z,3.98
2022-12-01T08:01:18.215Z,3.96
2022-12-01T08:03:45.129Z,3.77
2022-12-01T08:06:11.962Z,3.71
2022-12-01T08:08:40.171Z,3.84
2022-12-01T08:11:17.910Z,3.97
2022-12-01T08:13:44.766Z,4.00
2022-12-01T08:16:14.834Z,3.92
2022-12-01T08:18:42.277Z,4.02
2022-12-01T08:21:12.416Z,3.97
2022-12-01T08:23:39.940Z,3.90
2022-12-01T08:26:12.674Z,4.04
2022-12-01T08:28:40.098Z,4.07
2022-12-01T08:31:15.926Z,4.10
2022-12-01T08:33:42.619Z,4.14
2022-12-01T08:36:09.499Z,4.10
2022-12-01T08:38:36.072Z,4.04
2022-12-01T08:41:05.102Z,4.19
2022-12-01T08:43:56.730Z,4.18
2022-12-01T08:46:18.186Z,4.04
2022-12-01T08:48:44.753Z,4.17
2022-12-01T08:51:16.599Z,4.16
2022-12-01T08:53:46.124Z,4.13
2022-12-01T08:56:16.474Z,4.20
2022-12-01T08:58:43.408Z,4.23
2022-12-01T09:01:12.443Z,4.26
2022-12-01T09:03:39.722Z,4.30
2022-12-01T09:06:09.097Z,4.35
2022-12-01T09:08:36.787Z,4.36
2022-12-01T09:11:06.986Z,4.44
2022-12-01T09:13:35.338Z,4.46
2022-12-01T09:16:07.758Z,4.32
2022-12-01T09:18:34.411Z,4.54
2022-12-01T09:21:09.208Z,4.57
2022-12-01T09:23:35.772Z,4.49
2022-12-01T09:26:02.269Z,4.55
2022-12-01T09:28:28.795Z,4.55
2022-12-01T09:30:55.335Z,4.62
2022-12-01T09:33:21.840Z,4.61
2022-12-01T09:35:48.358Z,4.50
2022-12-01T09:38:14.834Z,4.64
2022-12-01T09:40:43.116Z,4.50
2022-12-01T09:43:40.868Z,4.77
2022-12-01T09:46:18.692Z,4.66
2022-12-01T09:48:47.935Z,4.84
2022-12-01T09:51:23.267Z,4.84
2022-12-01T09:53:56.799Z,4.83
2022-12-01T09:56:32.351Z,4.82
2022-12-01T09:59:05.623Z,5.01
2022-12-01T10:01:43.110Z,4.79
2022-12-01T10:04:35.575Z,5.15
2022-12-01T10:07:06.611Z,5.14
2022-12-01T10:09:56.451Z,5.17
2022-12-01T10:12:27.752Z,5.20
2022-12-01T10:15:05.775Z,5.21
2022-12-01T10:17:41.146Z,5.25
2022-12-01T10:20:30.173Z,5.23
2022-12-01T10:23:18.091Z,5.22
2022-12-01T10:25:44.561Z,5.22
2022-12-01T10:28:44.821Z,5.21
2022-12-01T10:31:26.492Z,5.13
2022-12-01T10:34:12.349Z,5.19
2022-12-01T10:36:39.170Z,5.19
2022-12-01T10:39:07.179Z,5.21
2022-12-01T10:41:37.649Z,5.16
2022-12-01T10:44:07.089Z,5.25
2022-12-01T10:46:49.333Z,5.26
2022-12-01T10:49:17.794Z,5.21
2022-12-01T10:51:58.374Z,5.26
2022-12-01T10:54:39.379Z,5.04
2022-12-01T10:57:13.869Z,5.29
2022-12-01T10:59:48.908Z,5.35
2022-12-01T11:02:26.060Z,5.35
2022-12-01T11:04:55.965Z,5.37
2022-12-01T11:07:44.226Z,5.36
2022-12-01T11:10:18.817Z,5.34
2022-12-01T11:12:53.154Z,5.40
2022-12-01T11:15:29.400Z,5.25
2022-12-01T11:17:59.932Z,5.53
2022-12-01T11:20:40.754Z,5.52
2022-12-01T11:23:28.340Z,5.57
2022-12-01T11:26:03.841Z,5.60
2022-12-01T11:28:31.874Z,5.57
2022-12-01T11:31:07.484Z,5.57
2022-12-01T11:33:45.288Z,5.69
2022-12-01T11:36:21.889Z,5.55
2022-12-01T11:38:49.154Z,5.78
2022-12-01T11:41:28.646Z,5.81
2022-12-01T11:44:01.575Z,5.79
2022-12-01T11:46:32.559Z,5.73
2022-12-01T11:49:00.286Z,5.74
2022-12-01T11:51:32.374Z,5.88
2022-12-01T11:54:13.594Z,5.93
2022-12-01T11:56:40.648Z,6.00
2022-12-01T11:59:15.922Z,5.96
2022-12-01T12:01:51.370Z,6.16
2022-12-01T12:04:35.359Z,6.16
2022-12-01T12:07:21.135Z,6.25
2022-12-01T12:09:59.450Z,6.29
2022-12-01T12:13:11.714Z,6.35
2022-12-01T12:15:44.403Z,6.47
2022-12-01T12:18:29.897Z,6.40
2022-12-01T12:21:08.337Z,6.62
2022-12-01T12:23:56.163Z,6.65
2022-12-01T12:26:25.783Z,6.69
2022-12-01T12:29:17.125Z,6.69
2022-12-01T12:32:01.901Z,6.75
2022-12-01T12:34:37.594Z,6.77
2022-12-01T12:37:41.045Z,6.77
2022-12-01T12:40:31.590Z,6.82
2022-12-01T12:43:19.504Z,6.89
2022-12-01T12:45:55.591Z,6.94
2022-12-01T12:48:38.734Z,6.89
2022-12-01T12:51:20.587Z,6.91
2022-12-01T12:53:53.522Z,6.88
2022-12-01T12:56:24.468Z,6.88
2022-12-01T12:58:59.518Z,6.86
2022-12-01T13:01:36.663Z,6.84
2022-12-01T13:04:21.509Z,6.85
2022-12-01T13:07:22.228Z,6.87
2022-12-01T13:10:32.487Z,6.88
2022-12-01T13:13:31.841Z,6.64
2022-12-01T13:16:00.186Z,6.89
2022-12-01T13:18:36.460Z,7.04
2022-12-01T13:21:05.610Z,6.89
2022-12-01T13:23:33.943Z,7.01
2022-12-01T13:26:04.817Z,6.99
2022-12-01T13:28:47.728Z,7.05
2022-12-01T13:31:16.833Z,7.13
2022-12-01T13:33:57.190Z,7.22
2022-12-01T13:36:45.738Z,7.26
2022-12-01T13:39:23.571Z,7.27
2022-12-01T13:42:08.648Z,7.29
2022-12-01T13:44:41.980Z,7.30
2022-12-01T13:47:11.502Z,7.33
2022-12-01T13:49:52.530Z,7.28
2022-12-01T13:52:22.161Z,7.29
2022-12-01T13:55:07.356Z,7.25
2022-12-01T13:57:39.657Z,7.26
2022-12-01T14:00:28.099Z,7.26
2022-12-01T14:03:13.055Z,7.27
2022-12-01T14:05:39.773Z,7.27
2022-12-01T14:08:21.279Z,7.24
2022-12-01T14:11:03.397Z,7.22
2022-12-01T14:13:31.779Z,7.16
2022-12-01T14:16:00.588Z,7.19
2022-12-01T14:18:36.688Z,7.04
2022-12-01T14:21:06.224Z,7.05
2022-12-01T14:23:35.350Z,7.11
2022-12-01T14:26:16.830Z,7.18
2022-12-01T14:28:55.676Z,7.18
2022-12-01T14:31:24.137Z,7.16
2022-12-01T14:34:14.443Z,7.17
2022-12-01T14:36:49.280Z,6.99
2022-12-01T14:39:21.375Z,7.10
2022-12-01T14:41:51.622Z,7.08
2022-12-01T14:44:36.478Z,7.06
2022-12-01T14:47:29.441Z,7.05
2022-12-01T14:50:02.062Z,7.04
2022-12-01T14:52:28.544Z,7.03
2022-12-01T14:54:58.603Z,6.83
2022-12-01T14:57:32.164Z,6.95
2022-12-01T15:00:14.080Z,6.93
2022-12-01T15:02:44.399Z,6.85
2022-12-01T15:05:16.728Z,6.80
2022-12-01T15:07:47.432Z,6.87
2022-12-01T15:10:20.725Z,6.89
2022-12-01T15:12:48.240Z,6.84
2022-12-01T15:15:32.624Z,6.87
2022-12-01T15:18:01.812Z,6.83
2022-12-01T15:20:37.368Z,6.80
2022-12-01T15:23:14.974Z,6.82
2022-12-01T15:25:44.854Z,6.85
2022-12-01T15:28:29.301Z,6.82
2022-12-01T15:30:56.366Z,6.72
2022-12-01T15:33:30.626Z,6.74
2022-12-01T15:36:00.681Z,6.68
2022-12-01T15:38:32.363Z,6.63
2022-12-01T15:44:00.741Z,6.58
2022-12-01T15:46:30.712Z,6.57
2022-12-01T15:49:32.275Z,6.57
2022-12-01T15:52:11.328Z,6.44
2022-12-01T15:54:38.805Z,6.35
2022-12-01T15:57:06.269Z,6.45
2022-12-01T15:59:35.654Z,6.44
2022-12-01T16:02:30.527Z,6.37
2022-12-01T16:05:03.266Z,6.32
2022-12-01T16:08:12.182Z,6.26
2022-12-01T16:10:36.766Z,6.11
2022-12-01T16:13:37.472Z,6.17
2022-12-01T16:16:32.069Z,6.11
2022-12-01T16:19:10.286Z,6.10
2022-12-01T16:21:58.193Z,6.09
2022-12-01T16:24:37.710Z,5.80
2022-12-01T16:27:30.162Z,6.03
2022-12-01T16:30:02.779Z,6.03
2022-12-01T16:32:35.967Z,6.05
2022-12-01T16:35:04.316Z,6.00
2022-12-01T16:37:31.154Z,6.04
2022-12-01T16:39:58.538Z,5.90
2022-12-01T16:42:25.113Z,5.84
2022-12-01T16:44:52.226Z,5.99
2022-12-01T16:47:25.687Z,5.95
2022-12-01T16:49:53.051Z,5.87
2022-12-01T16:55:25.494Z,6.03
2022-12-01T16:57:52.064Z,5.87
2022-12-01T17:00:18.937Z,6.02
2022-12-01T17:02:45.456Z,5.90
2022-12-01T17:05:11.991Z,5.87
2022-12-01T17:07:38.667Z,5.95
2022-12-01T17:10:06.177Z,5.84
2022-12-01T17:12:32.848Z,5.90
2022-12-01T17:14:59.376Z,5.83
2022-12-01T17:17:25.991Z,5.78
2022-12-01T17:19:52.988Z,5.90
2022-12-01T17:22:19.882Z,5.66
2022-12-01T17:24:46.383Z,5.70
2022-12-01T17:27:13.192Z,5.80
2022-12-01T17:29:45.725Z,5.59
2022-12-01T17:32:13.824Z,5.80
2022-12-01T17:34:41.056Z,5.49
2022-12-01T17:37:07.856Z,5.62
2022-12-01T17:39:34.429Z,5.62
2022-12-01T17:42:00.954Z,5.68
2022-12-01T17:44:27.518Z,5.55
2022-12-01T17:46:54.286Z,5.62
2022-12-01T17:49:21.174Z,5.56
2022-12-01T17:51:47.876Z,5.60
2022-12-01T17:54:15.800Z,5.54
2022-12-01T17:56:42.850Z,5.31
2022-12-01T17:59:09.543Z,5.36
2022-12-01T18:01:36.192Z,5.38
2022-12-01T18:04:03.869Z,5.34
2022-12-01T18:06:30.564Z,5.33
2022-12-01T18:08:57.703Z,5.38
2022-12-01T18:11:24.337Z,5.24
2022-12-01T18:13:52.155Z,5.35
2022-12-01T18:16:23.234Z,5.35
2022-12-01T18:18:50.483Z,5.34
2022-12-01T18:21:19.617Z,5.33
2022-12-01T18:23:51.037Z,5.34
2022-12-01T18:26:19.051Z,5.34
2022-12-01T18:28:45.659Z,5.06
2022-12-01T18:31:14.941Z,5.19
2022-12-01T18:33:43.789Z,5.20
2022-12-01T18:36:19.286Z,5.16
2022-12-01T18:38:49.201Z,5.28
2022-12-01T18:41:16.741Z,5.27
2022-12-01T18:43:44.343Z,5.31
2022-12-01T18:46:12.359Z,5.30
2022-12-01T18:48:45.283Z,5.30
2022-12-01T18:51:12.493Z,5.21
2022-12-01T18:53:39.665Z,5.36
2022-12-01T18:56:11.783Z,5.18
2022-12-01T18:58:39.356Z,5.35
2022-12-01T19:01:21.856Z,5.19
2022-12-01T19:03:48.771Z,5.33
2022-12-01T19:06:15.813Z,5.33
2022-12-01T19:08:42.637Z,5.34
2022-12-01T19:11:09.223Z,5.27
2022-12-01T19:13:35.893Z,5.30
2022-12-01T19:16:08.401Z,5.38
2022-12-01T19:18:36.179Z,5.35
2022-12-01T19:21:04.674Z,5.26
2022-12-01T19:23:31.574Z,5.28
2022-12-01T19:25:58.507Z,5.00
2022-12-01T19:28:25.022Z,5.25
2022-12-01T19:30:51.810Z,5.20
2022-12-01T19:33:18.300Z,5.33
2022-12-01T19:35:44.952Z,5.32
2022-12-01T19:38:11.694Z,5.26
2022-12-01T19:40:38.860Z,5.44
2022-12-01T19:43:05.584Z,5.48
2022-12-01T19:45:33.463Z,5.49
2022-12-01T19:48:00.117Z,5.27
2022-12-01T19:50:26.627Z,5.36
2022-12-01T19:52:53.170Z,5.44
2022-12-01T19:55:19.741Z,5.53
2022-12-01T19:57:51.397Z,5.49
2022-12-01T20:00:19.072Z,5.47
2022-12-01T20:02:45.692Z,5.33
2022-12-01T20:05:12.436Z,5.46
2022-12-01T20:07:39.150Z,5.30
2022-12-01T20:10:06.255Z,5.40
2022-12-01T20:12:34.818Z,5.46
2022-12-01T20:15:01.665Z,5.42
2022-12-01T20:17:28.192Z,5.42
2022-12-01T20:19:54.702Z,5.35
2022-12-01T20:22:21.235Z,5.38
2022-12-01T20:24:48.123Z,5.39
2022-12-01T20:27:14.814Z,5.37
2022-12-01T20:29:41.360Z,5.43
2022-12-01T20:32:26.902Z,5.46
2022-12-01T20:35:13.793Z,5.43
2022-12-01T20:38:00.762Z,5.30
2022-12-01T20:40:50.660Z,5.35
2022-12-01T20:43:38.242Z,5.41
2022-12-01T20:46:05.181Z,5.37
2022-12-01T20:48:32.290Z,5.35
2022-12-01T20:51:01.507Z,5.40
2022-12-01T20:53:28.189Z,5.42
2022-12-01T20:55:55.772Z,5.27
2022-12-01T20:58:23.790Z,5.23
2022-12-01T21:00:50.329Z,5.09
2022-12-01T21:03:16.851Z,5.37
2022-12-01T21:05:43.825Z,5.40
2022-12-01T21:08:12.577Z,5.36
2022-12-01T21:10:42.519Z,5.40
2022-12-01T21:13:38.385Z,5.30
2022-12-01T21:16:26.900Z,5.27
2022-12-01T21:18:59.888Z,5.29
2022-12-01T21:21:31.446Z,5.28
2022-12-01T21:24:18.689Z,5.30
2022-12-01T21:26:50.439Z,5.45
2022-12-01T21:29:20.063Z,5.33
2022-12-01T21:31:49.977Z,5.41
2022-12-01T21:34:23.006Z,5.44
2022-12-01T21:36:52.719Z,5.43
2022-12-01T21:39:22.100Z,5.32
2022-12-01T21:41:50.674Z,5.37
2022-12-01T21:44:19.354Z,5.41
2022-12-01T21:46:47.839Z,5.35
2022-12-01T21:49:37.129Z,5.45
2022-12-01T21:52:12.070Z,5.53
2022-12-01T21:54:38.695Z,5.52
2022-12-01T21:57:29.401Z,5.37
2022-12-01T22:00:08.354Z,5.57
2022-12-01T22:03:21.753Z,5.57
2022-12-01T22:06:13.699Z,5.56
2022-12-01T22:08:40.376Z,5.62
2022-12-01T22:11:14.937Z,5.63
2022-12-01T22:14:08.677Z,5.60
2022-12-01T22:17:00.964Z,5.47
2022-12-01T22:19:37.392Z,5.64
2022-12-01T22:22:09.942Z,5.67
2022-12-01T22:24:45.443Z,5.67
2022-12-01T22:27:11.951Z,5.69
2022-12-01T22:29:47.041Z,5.69
2022-12-01T22:32:13.574Z,5.70
2022-12-01T22:34:53.771Z,5.68
2022-12-01T22:37:23.043Z,5.63
2022-12-01T22:39:53.715Z,5.71
2022-12-01T22:42:34.714Z,5.67
2022-12-01T22:45:25.765Z,5.74
2022-12-01T22:48:00.309Z,5.69
2022-12-01T22:50:32.207Z,5.74
2022-12-01T22:53:10.807Z,5.77
2022-12-01T22:55:37.707Z,5.62
2022-12-01T22:58:22.651Z,5.79
2022-12-01T23:00:49.391Z,5.79
2022-12-01T23:03:16.636Z,5.80
2022-12-01T23:05:43.242Z,5.54
2022-12-01T23:08:11.040Z,5.81
2022-12-01T23:10:40.353Z,5.55
2022-12-01T23:13:19.763Z,5.76
2022-12-01T23:15:49.274Z,5.71
2022-12-01T23:18:27.213Z,5.78
2022-12-01T23:20:58.907Z,5.64
2022-12-01T23:23:34.624Z,5.60
2022-12-01T23:26:07.555Z,5.78
2022-12-01T23:28:36.911Z,5.62
2022-12-01T23:31:03.530Z,5.75
2022-12-01T23:33:32.679Z,5.84
2022-12-01T23:36:05.213Z,5.82
2022-12-01T23:38:38.253Z,5.71
2022-12-01T23:41:07.903Z,5.81
2022-12-01T23:43:40.126Z,5.77
2022-12-01T23:46:16.843Z,5.70
2022-12-01T23:49:05.215Z,5.82
2022-12-01T23:51:38.580Z,5.74
2022-12-01T23:54:14.222Z,5.81
2022-12-01T23:56:40.804Z,5.85
2022-12-01T23:59:13.431Z,5.70
